Deronda, Wisconsin
Current Conditions -  °F | °C
As of 8:55 PM on Tuesday 21 Oct 2014 (Local Time) from KOEO Reporting Station
Clear Clear  
Wind Chill: 36°   Ceiling: Unl
Heat Index: 41°   Visibility: 10mi
Dew Point: 37°   Wind: 8mph
Humidity: 83%   Direction: 110°ESE
Pressure: 30.21"   Gusts: NA
Location:  45.3559°N, 92.3527°W
Report Text: KOEO 220155Z AUTO 11007KT 10SM CLR 05/03 A3021 RMK AO2 T00510025
Loading
Personal Weather Stations






























Interactive Weather Map
Tropical Storm Tracking
New forecast layout! Learn more

10-Day Weather Forecast

Advertisements
Track Severe Weather on mobile